Time;durP1;ratioP1;P1;durP2;ratioP2;P2;SDS_P1;SDS_P2;PMS_P1;PMS_P2;Temp;Humidity;BMP_temperature;BMP_pressure;BME280_temperature;BME280_humidity;BME280_pressure;Samples;Min_cycle;Max_cycle;Signal;HPM_P1;HPM_P2
2023/04/30 00:00:50;;;;;;;14.33;8.67;;;;;;;;;;5005149;28;20195;-68
2023/04/30 00:03:15;;;;;;;13.20;7.53;;;;;;;;;;5004763;28;20187;-68
2023/04/30 00:05:41;;;;;;;12.47;7.60;;;;;;;;;;5005674;28;20270;-68
2023/04/30 00:08:06;;;;;;;12.00;7.70;;;;;;;;;;5001281;28;20210;-68
2023/04/30 00:10:31;;;;;;;14.87;8.10;;;;;;;;;;5000239;28;20202;-68
2023/04/30 00:12:56;;;;;;;13.90;8.17;;;;;;;;;;5004074;28;20198;-68
2023/04/30 00:15:21;;;;;;;15.13;7.93;;;;;;;;;;5002949;28;20209;-68
2023/04/30 00:17:47;;;;;;;14.00;7.47;;;;;;;;;;5002554;28;20179;-68
2023/04/30 00:20:12;;;;;;;12.80;7.27;;;;;;;;;;5001908;28;20191;-68
2023/04/30 00:22:37;;;;;;;12.97;7.37;;;;;;;;;;5002200;28;20194;-68
2023/04/30 00:25:03;;;;;;;14.10;7.93;;;;;;;;;;5003762;28;20182;-68
2023/04/30 00:27:28;;;;;;;13.17;8.00;;;;;;;;;;5003396;28;20849;-68
2023/04/30 00:29:54;;;;;;;14.03;7.50;;;;;;;;;;5002262;28;20264;-68
2023/04/30 00:32:19;;;;;;;13.93;7.80;;;;;;;;;;5000389;28;20214;-68
2023/04/30 00:34:44;;;;;;;13.27;9.57;;;;;;;;;;5002196;28;20198;-68
2023/04/30 00:37:10;;;;;;;15.93;8.80;;;;;;;;;;5000996;28;20198;-68
2023/04/30 00:39:35;;;;;;;13.50;8.53;;;;;;;;;;5003325;28;21821;-68
2023/04/30 00:42:01;;;;;;;17.17;8.10;;;;;;;;;;5002780;28;20190;-68
2023/04/30 00:44:26;;;;;;;12.03;8.17;;;;;;;;;;4981877;28;20710;-68
2023/04/30 00:46:51;;;;;;;13.37;8.13;;;;;;;;;;5001597;28;20258;-68
2023/04/30 00:49:17;;;;;;;15.27;8.33;;;;;;;;;;5003110;28;20182;-68
2023/04/30 00:51:42;;;;;;;11.10;7.67;;;;;;;;;;5001920;28;20583;-68
2023/04/30 00:54:08;;;;;;;12.17;8.57;;;;;;;;;;5002591;28;20528;-68
2023/04/30 00:56:33;;;;;;;11.27;7.57;;;;;;;;;;5001518;28;20181;-68
2023/04/30 00:58:58;;;;;;;13.93;7.57;;;;;;;;;;4997785;28;20172;-70
2023/04/30 01:01:24;;;;;;;13.23;8.10;;;;;;;;;;4999508;28;20194;-68
2023/04/30 01:03:50;;;;;;;12.80;8.40;;;;;;;;;;4985256;28;20657;-68
2023/04/30 01:06:15;;;;;;;15.87;9.37;;;;;;;;;;5002488;28;20270;-68
2023/04/30 01:08:40;;;;;;;13.23;8.23;;;;;;;;;;5002372;28;20504;-67
2023/04/30 01:11:05;;;;;;;20.03;10.73;;;;;;;;;;5003087;28;20651;-68
2023/04/30 01:13:37;;;;;;;15.87;9.03;;;;;;;;;;5002604;28;20724;-68
2023/04/30 01:16:26;;;;;;;17.87;10.30;;;;;;;;;;5006872;28;20230;-68
2023/04/30 01:18:53;;;;;;;15.23;9.50;;;;;;;;;;4992275;28;20187;-68
2023/04/30 01:21:19;;;;;;;14.93;9.60;;;;;;;;;;5007905;28;20576;-68
2023/04/30 01:24:00;;;;;;;16.43;9.03;;;;;;;;;;5009514;28;20187;-68
2023/04/30 01:26:45;;;;;;;15.80;9.30;;;;;;;;;;5002886;28;20187;-68
2023/04/30 01:29:11;;;;;;;17.33;9.20;;;;;;;;;;4989393;28;20178;-68
2023/04/30 01:31:37;;;;;;;16.27;8.73;;;;;;;;;;4985260;28;20223;-68
2023/04/30 01:34:03;;;;;;;17.13;10.43;;;;;;;;;;5002478;28;20582;-68
2023/04/30 01:36:47;;;;;;;18.10;9.70;;;;;;;;;;5006098;28;20176;-68
2023/04/30 01:39:15;;;;;;;16.27;9.47;;;;;;;;;;5002237;28;20603;-67
2023/04/30 01:41:56;;;;;;;17.93;9.73;;;;;;;;;;4987491;28;20290;-68
2023/04/30 01:44:41;;;;;;;15.03;9.80;;;;;;;;;;5002032;28;20191;-68
2023/04/30 01:47:24;;;;;;;16.63;9.33;;;;;;;;;;5001983;28;20202;-68
2023/04/30 01:50:00;;;;;;;12.83;8.17;;;;;;;;;;5005276;28;20663;-68
2023/04/30 01:52:31;;;;;;;16.57;9.27;;;;;;;;;;5004792;28;20210;-68
2023/04/30 01:55:04;;;;;;;19.70;8.73;;;;;;;;;;5005669;28;20577;-68
2023/04/30 01:57:36;;;;;;;18.00;10.33;;;;;;;;;;5004948;28;20198;-68
2023/04/30 02:00:01;;;;;;;14.77;8.80;;;;;;;;;;4999950;28;20322;-68
2023/04/30 02:02:26;;;;;;;17.87;10.80;;;;;;;;;;5002789;28;20631;-68
2023/04/30 02:04:52;;;;;;;17.67;10.17;;;;;;;;;;4989428;28;20442;-68
2023/04/30 02:07:26;;;;;;;15.33;8.97;;;;;;;;;;5004326;28;20183;-68
2023/04/30 02:09:51;;;;;;;15.07;9.43;;;;;;;;;;5003957;28;20189;-68
2023/04/30 02:12:16;;;;;;;18.40;9.83;;;;;;;;;;5004137;28;20206;-68
2023/04/30 02:14:41;;;;;;;18.27;10.00;;;;;;;;;;5005112;28;20211;-68
2023/04/30 02:17:06;;;;;;;16.13;9.70;;;;;;;;;;5004716;28;20589;-68
2023/04/30 02:19:32;;;;;;;17.77;9.70;;;;;;;;;;4999726;28;20183;-68
2023/04/30 02:21:57;;;;;;;17.70;10.67;;;;;;;;;;5000529;28;20202;-67
2023/04/30 02:24:22;;;;;;;17.73;11.07;;;;;;;;;;5001969;28;20676;-68
2023/04/30 02:26:47;;;;;;;17.57;9.90;;;;;;;;;;5010562;28;20187;-68
2023/04/30 02:29:12;;;;;;;17.80;9.67;;;;;;;;;;5000254;28;20242;-68
2023/04/30 02:31:37;;;;;;;19.97;10.67;;;;;;;;;;4992022;28;20238;-68
2023/04/30 02:34:03;;;;;;;16.90;11.03;;;;;;;;;;5004789;28;20183;-68
2023/04/30 02:36:28;;;;;;;17.70;10.30;;;;;;;;;;5004621;28;20198;-67
2023/04/30 02:38:53;;;;;;;18.67;10.27;;;;;;;;;;5005053;28;20180;-68
2023/04/30 02:41:18;;;;;;;16.77;10.60;;;;;;;;;;4989973;28;20557;-68
2023/04/30 02:43:44;;;;;;;21.40;10.93;;;;;;;;;;5004642;28;20182;-67
2023/04/30 02:46:09;;;;;;;17.10;10.00;;;;;;;;;;5009006;28;20179;-67
2023/04/30 02:48:34;;;;;;;17.03;10.93;;;;;;;;;;5005552;28;20189;-67
2023/04/30 02:50:59;;;;;;;19.40;10.27;;;;;;;;;;5002544;28;20202;-67
2023/04/30 02:53:24;;;;;;;19.73;10.43;;;;;;;;;;5004506;28;20197;-67
2023/04/30 02:55:50;;;;;;;18.43;10.93;;;;;;;;;;5003754;28;20216;-68
2023/04/30 02:58:15;;;;;;;17.13;9.87;;;;;;;;;;5004339;28;21172;-68
2023/04/30 03:00:40;;;;;;;17.07;9.80;;;;;;;;;;4999600;28;20257;-67
2023/04/30 03:03:05;;;;;;;18.17;9.77;;;;;;;;;;5011355;28;20175;-68
2023/04/30 03:05:31;;;;;;;15.77;8.57;;;;;;;;;;5012277;28;20194;-68
2023/04/30 03:07:56;;;;;;;14.33;8.97;;;;;;;;;;5011516;28;20254;-68
2023/04/30 03:10:21;;;;;;;16.53;9.73;;;;;;;;;;5011482;28;20195;-68
2023/04/30 03:12:46;;;;;;;14.43;9.40;;;;;;;;;;5009301;28;20175;-68
2023/04/30 03:15:12;;;;;;;14.03;8.93;;;;;;;;;;5003477;28;20689;-68
2023/04/30 03:17:37;;;;;;;14.40;9.40;;;;;;;;;;4999103;28;20187;-68
2023/04/30 03:20:02;;;;;;;15.77;9.33;;;;;;;;;;5006822;28;20179;-68
2023/04/30 03:22:29;;;;;;;13.70;8.53;;;;;;;;;;5009695;28;20552;-68
2023/04/30 03:24:54;;;;;;;15.77;8.83;;;;;;;;;;5003105;28;20230;-68
2023/04/30 03:27:20;;;;;;;13.23;8.17;;;;;;;;;;5006056;28;20248;-68
2023/04/30 03:29:45;;;;;;;15.00;8.93;;;;;;;;;;4998099;28;20179;-68
2023/04/30 03:32:10;;;;;;;14.23;9.47;;;;;;;;;;5003666;28;20222;-68
2023/04/30 03:34:35;;;;;;;12.93;8.20;;;;;;;;;;5001078;28;20210;-68
2023/04/30 03:37:01;;;;;;;17.13;8.70;;;;;;;;;;4991685;28;20700;-68
2023/04/30 03:39:26;;;;;;;16.63;10.23;;;;;;;;;;5007445;28;20179;-68
2023/04/30 03:41:51;;;;;;;11.73;7.77;;;;;;;;;;4999871;28;20201;-68
2023/04/30 03:44:16;;;;;;;15.17;8.87;;;;;;;;;;5002861;28;20194;-68
2023/04/30 03:46:44;;;;;;;17.80;8.60;;;;;;;;;;5003114;28;20185;-68
2023/04/30 03:49:10;;;;;;;11.83;7.53;;;;;;;;;;5007053;28;20579;-68
2023/04/30 03:51:38;;;;;;;13.83;8.63;;;;;;;;;;5008327;28;20226;-68
2023/04/30 03:54:05;;;;;;;13.23;8.63;;;;;;;;;;5002917;28;20175;-68
2023/04/30 03:56:30;;;;;;;20.37;10.50;;;;;;;;;;5002232;28;20190;-68
2023/04/30 03:58:55;;;;;;;19.53;9.53;;;;;;;;;;5002656;28;20179;-67
2023/04/30 04:01:20;;;;;;;16.80;9.43;;;;;;;;;;5002522;28;20724;-68
2023/04/30 04:03:45;;;;;;;16.57;9.97;;;;;;;;;;5006806;28;20201;-68
2023/04/30 04:06:11;;;;;;;16.67;9.83;;;;;;;;;;5002138;28;20676;-67
2023/04/30 04:08:36;;;;;;;14.43;9.33;;;;;;;;;;5004405;28;20596;-68
2023/04/30 04:11:01;;;;;;;15.17;9.50;;;;;;;;;;5003599;28;20225;-68
2023/04/30 04:13:26;;;;;;;14.90;9.40;;;;;;;;;;4987055;28;20690;-67
2023/04/30 04:15:51;;;;;;;13.03;8.83;;;;;;;;;;5003378;28;20203;-68
2023/04/30 04:18:17;;;;;;;16.27;8.30;;;;;;;;;;5003627;28;20213;-67
2023/04/30 04:20:42;;;;;;;15.70;8.73;;;;;;;;;;4996257;28;20201;-68
2023/04/30 04:23:07;;;;;;;14.20;8.50;;;;;;;;;;4992223;28;20237;-68
2023/04/30 04:25:34;;;;;;;14.80;8.87;;;;;;;;;;5004716;28;20234;-68
2023/04/30 04:27:59;;;;;;;13.33;8.23;;;;;;;;;;5005274;28;20260;-68
2023/04/30 04:30:24;;;;;;;14.23;8.87;;;;;;;;;;4998495;28;20660;-68
2023/04/30 04:32:53;;;;;;;16.20;8.60;;;;;;;;;;5002438;28;20185;-68
2023/04/30 04:35:18;;;;;;;16.47;9.40;;;;;;;;;;5006491;28;20669;-68
2023/04/30 04:37:43;;;;;;;16.77;9.57;;;;;;;;;;5009316;28;20171;-68
2023/04/30 04:40:10;;;;;;;19.80;8.97;;;;;;;;;;5005746;28;20237;-68
2023/04/30 04:42:36;;;;;;;13.80;7.77;;;;;;;;;;4987600;28;20545;-68
2023/04/30 04:45:02;;;;;;;18.30;9.10;;;;;;;;;;5007249;28;20265;-68
2023/04/30 04:47:28;;;;;;;16.87;8.50;;;;;;;;;;4978661;28;20179;-68
2023/04/30 04:49:53;;;;;;;15.43;9.27;;;;;;;;;;4974354;28;20238;-68
2023/04/30 04:52:18;;;;;;;13.37;8.40;;;;;;;;;;4999649;28;20230;-68
2023/04/30 04:54:43;;;;;;;14.07;8.47;;;;;;;;;;4986849;28;20207;-68
2023/04/30 04:57:08;;;;;;;14.10;8.67;;;;;;;;;;4999935;28;20233;-68
2023/04/30 04:59:33;;;;;;;12.03;7.80;;;;;;;;;;5005145;28;20680;-69
2023/04/30 05:01:59;;;;;;;11.17;7.77;;;;;;;;;;5002733;28;20207;-68
2023/04/30 05:04:24;;;;;;;18.30;9.23;;;;;;;;;;5003346;28;20183;-68
2023/04/30 05:06:49;;;;;;;12.97;8.30;;;;;;;;;;5002582;28;20607;-68
2023/04/30 05:09:15;;;;;;;11.37;8.03;;;;;;;;;;5009387;28;20537;-68
2023/04/30 05:11:40;;;;;;;15.00;8.67;;;;;;;;;;4999723;28;20203;-69
2023/04/30 05:14:06;;;;;;;17.10;9.30;;;;;;;;;;5005686;28;20183;-69
2023/04/30 05:16:31;;;;;;;15.87;9.60;;;;;;;;;;5003065;28;20187;-69
2023/04/30 05:18:56;;;;;;;12.67;8.77;;;;;;;;;;5006214;28;20179;-67
2023/04/30 05:21:22;;;;;;;13.13;8.23;;;;;;;;;;4997058;28;20581;-68
2023/04/30 05:23:47;;;;;;;14.60;8.10;;;;;;;;;;5003912;28;20180;-68
2023/04/30 05:26:12;;;;;;;13.13;7.97;;;;;;;;;;5008003;28;20183;-68
2023/04/30 05:28:37;;;;;;;14.00;7.70;;;;;;;;;;5000289;28;20187;-68
2023/04/30 05:31:02;;;;;;;12.70;7.87;;;;;;;;;;5005622;28;20269;-68
2023/04/30 05:33:28;;;;;;;14.43;7.43;;;;;;;;;;5003226;28;20211;-68
2023/04/30 05:35:53;;;;;;;13.20;7.30;;;;;;;;;;5013121;28;20195;-68
2023/04/30 05:38:18;;;;;;;12.20;7.43;;;;;;;;;;4990891;28;20183;-68
2023/04/30 05:40:43;;;;;;;10.23;6.70;;;;;;;;;;5000083;28;20274;-68
2023/04/30 05:43:09;;;;;;;9.53;7.27;;;;;;;;;;5008325;28;20171;-68
2023/04/30 05:45:34;;;;;;;11.00;6.47;;;;;;;;;;5005708;28;20563;-68
2023/04/30 05:48:00;;;;;;;9.80;6.20;;;;;;;;;;5007676;28;20187;-68
2023/04/30 05:50:25;;;;;;;11.83;6.63;;;;;;;;;;5010872;28;20214;-68
2023/04/30 05:52:51;;;;;;;10.17;6.13;;;;;;;;;;5011354;28;20174;-68
2023/04/30 05:55:16;;;;;;;8.20;5.77;;;;;;;;;;5009126;28;20211;-69
2023/04/30 05:57:41;;;;;;;8.57;6.30;;;;;;;;;;5005815;28;20183;-68
2023/04/30 06:00:07;;;;;;;10.20;6.40;;;;;;;;;;5002243;28;20225;-68
2023/04/30 06:02:32;;;;;;;9.67;6.43;;;;;;;;;;5000873;28;20179;-68
2023/04/30 06:04:57;;;;;;;9.60;5.60;;;;;;;;;;5005302;28;20183;-68
2023/04/30 06:07:22;;;;;;;6.40;4.97;;;;;;;;;;5005480;28;20291;-68
2023/04/30 06:09:48;;;;;;;6.97;5.30;;;;;;;;;;5004981;28;20273;-68
2023/04/30 06:12:13;;;;;;;8.10;6.07;;;;;;;;;;4988303;28;20218;-68
2023/04/30 06:14:38;;;;;;;8.13;5.67;;;;;;;;;;5005195;28;20207;-68
2023/04/30 06:17:03;;;;;;;8.77;5.60;;;;;;;;;;5005567;28;20266;-68
2023/04/30 06:19:29;;;;;;;10.60;5.07;;;;;;;;;;5003146;28;20206;-68
2023/04/30 06:21:54;;;;;;;8.10;5.60;;;;;;;;;;5000830;28;20546;-67
2023/04/30 06:24:19;;;;;;;8.90;4.93;;;;;;;;;;5011245;28;20179;-68
2023/04/30 06:26:44;;;;;;;6.60;5.10;;;;;;;;;;4993519;28;20180;-68
2023/04/30 06:29:10;;;;;;;8.63;5.70;;;;;;;;;;5004319;28;20545;-68
2023/04/30 06:31:35;;;;;;;7.70;5.10;;;;;;;;;;5005113;28;20207;-68
2023/04/30 06:34:00;;;;;;;7.27;5.63;;;;;;;;;;5000441;28;20183;-68
2023/04/30 06:36:25;;;;;;;9.77;5.30;;;;;;;;;;5003483;28;20210;-69
2023/04/30 06:38:51;;;;;;;9.13;5.70;;;;;;;;;;5009468;28;20265;-67
2023/04/30 06:41:16;;;;;;;8.47;5.03;;;;;;;;;;4999789;28;20697;-67
2023/04/30 06:43:44;;;;;;;8.03;5.27;;;;;;;;;;5008386;28;20546;-67
2023/04/30 06:46:09;;;;;;;7.00;4.70;;;;;;;;;;5003452;28;20238;-68
2023/04/30 06:48:34;;;;;;;8.83;6.10;;;;;;;;;;5001045;28;20178;-68
2023/04/30 06:51:00;;;;;;;11.17;5.77;;;;;;;;;;5000968;28;20689;-67
2023/04/30 06:53:25;;;;;;;6.43;4.60;;;;;;;;;;5009887;28;20645;-68
2023/04/30 06:55:51;;;;;;;6.00;4.77;;;;;;;;;;5006517;28;20205;-68
2023/04/30 06:58:17;;;;;;;9.60;5.53;;;;;;;;;;5004419;28;20665;-67
2023/04/30 07:00:42;;;;;;;6.63;5.43;;;;;;;;;;5000963;28;20202;-67
2023/04/30 07:03:07;;;;;;;7.60;5.60;;;;;;;;;;5001062;28;20182;-68
2023/04/30 07:05:33;;;;;;;7.03;4.65;;;;;;;;;;5008621;28;20186;-67
2023/04/30 07:08:02;;;;;;;9.13;5.32;;;;;;;;;;5007391;28;20183;-67
2023/04/30 07:10:27;;;;;;;7.10;4.88;;;;;;;;;;5005186;28;20636;-68
2023/04/30 07:12:52;;;;;;;6.90;5.05;;;;;;;;;;5009622;28;20262;-68
2023/04/30 07:15:18;;;;;;;7.97;5.00;;;;;;;;;;5009155;28;20214;-68
2023/04/30 07:17:43;;;;;;;8.48;4.95;;;;;;;;;;5009349;28;20179;-67
2023/04/30 07:20:08;;;;;;;6.93;4.82;;;;;;;;;;5006238;28;20220;-67
2023/04/30 07:22:34;;;;;;;7.22;4.88;;;;;;;;;;5005865;28;20552;-68
2023/04/30 07:24:59;;;;;;;6.55;4.53;;;;;;;;;;5005561;28;20171;-68
2023/04/30 07:27:25;;;;;;;6.88;5.15;;;;;;;;;;5009917;28;20190;-68
2023/04/30 07:29:50;;;;;;;7.32;4.70;;;;;;;;;;5002514;28;20197;-68
2023/04/30 07:32:16;;;;;;;5.72;4.40;;;;;;;;;;5008077;28;20737;-68
2023/04/30 07:34:41;;;;;;;8.57;5.10;;;;;;;;;;5000883;28;20210;-68
2023/04/30 07:37:07;;;;;;;5.55;4.82;;;;;;;;;;5010827;28;20186;-68
2023/04/30 07:39:32;;;;;;;8.68;5.25;;;;;;;;;;4991200;28;20241;-67
2023/04/30 07:41:58;;;;;;;6.68;4.63;;;;;;;;;;5004000;28;20241;-68
2023/04/30 07:44:23;;;;;;;6.82;4.82;;;;;;;;;;5003089;28;20183;-68
2023/04/30 07:46:48;;;;;;;7.95;5.13;;;;;;;;;;5001527;28;20675;-68
2023/04/30 07:49:14;;;;;;;9.88;4.80;;;;;;;;;;5003856;28;20183;-68
2023/04/30 07:51:41;;;;;;;7.15;4.55;;;;;;;;;;5003489;28;20218;-68
2023/04/30 07:54:06;;;;;;;6.45;5.15;;;;;;;;;;5003292;28;20754;-68
2023/04/30 07:56:31;;;;;;;9.45;4.60;;;;;;;;;;5001981;28;20294;-68
2023/04/30 07:58:56;;;;;;;5.32;3.95;;;;;;;;;;5002638;28;20480;-68
2023/04/30 08:01:21;;;;;;;5.97;4.13;;;;;;;;;;5002149;28;20194;-68
2023/04/30 08:03:47;;;;;;;6.72;5.50;;;;;;;;;;4996368;28;20182;-68
2023/04/30 08:06:12;;;;;;;7.00;4.47;;;;;;;;;;5002200;28;20186;-68
2023/04/30 08:08:38;;;;;;;9.10;4.88;;;;;;;;;;5002768;28;20175;-68
2023/04/30 08:11:03;;;;;;;6.95;4.47;;;;;;;;;;5001411;28;20198;-68
2023/04/30 08:13:29;;;;;;;6.72;4.35;;;;;;;;;;5003092;28;20187;-68
2023/04/30 08:15:54;;;;;;;8.15;4.57;;;;;;;;;;5002091;28;20199;-68
2023/04/30 08:18:20;;;;;;;7.53;5.68;;;;;;;;;;5003588;28;20187;-68
2023/04/30 08:20:45;;;;;;;7.53;4.85;;;;;;;;;;4985466;28;20239;-68
2023/04/30 08:23:10;;;;;;;7.10;4.13;;;;;;;;;;5001617;28;20613;-68
2023/04/30 08:25:35;;;;;;;5.28;3.55;;;;;;;;;;5002579;28;20288;-68
2023/04/30 08:28:01;;;;;;;9.13;4.70;;;;;;;;;;5002049;28;20182;-68
2023/04/30 08:30:26;;;;;;;7.53;4.35;;;;;;;;;;5002606;28;20273;-68
2023/04/30 08:32:51;;;;;;;5.40;4.25;;;;;;;;;;5002393;28;20187;-68
2023/04/30 08:35:16;;;;;;;5.68;4.00;;;;;;;;;;5002451;28;20215;-68
2023/04/30 08:37:42;;;;;;;6.85;4.70;;;;;;;;;;5001520;28;20186;-69
2023/04/30 08:40:08;;;;;;;5.07;4.25;;;;;;;;;;5002780;28;20677;-68
2023/04/30 08:42:35;;;;;;;6.90;4.50;;;;;;;;;;5002918;28;20179;-68
2023/04/30 08:45:02;;;;;;;6.53;4.72;;;;;;;;;;5002607;28;20219;-68
2023/04/30 08:47:27;;;;;;;7.88;4.30;;;;;;;;;;5003049;28;21048;-69
2023/04/30 08:49:53;;;;;;;7.80;4.20;;;;;;;;;;5002587;28;20311;-69
2023/04/30 08:52:18;;;;;;;5.75;4.43;;;;;;;;;;5002125;28;20248;-68
2023/04/30 08:54:44;;;;;;;4.65;4.05;;;;;;;;;;5002136;28;20199;-68
2023/04/30 08:57:09;;;;;;;7.07;4.07;;;;;;;;;;5003770;28;20170;-68
2023/04/30 08:59:34;;;;;;;4.72;3.72;;;;;;;;;;5006268;28;20186;-69
2023/04/30 09:02:00;;;;;;;9.40;4.70;;;;;;;;;;5005758;28;20622;-69
2023/04/30 09:04:26;;;;;;;6.55;3.78;;;;;;;;;;4995902;28;20198;-68
2023/04/30 09:06:57;;;;;;;6.45;4.50;;;;;;;;;;5001342;28;20179;-68
2023/04/30 09:09:26;;;;;;;5.93;3.67;;;;;;;;;;4989309;28;20240;-68
2023/04/30 09:11:51;;;;;;;7.22;4.22;;;;;;;;;;5004379;28;20198;-68
2023/04/30 09:14:22;;;;;;;5.50;4.60;;;;;;;;;;5005232;28;20179;-68
2023/04/30 09:16:48;;;;;;;7.05;4.05;;;;;;;;;;5005729;28;20920;-67
2023/04/30 09:19:26;;;;;;;4.07;3.15;;;;;;;;;;5005522;28;20661;-69
2023/04/30 09:21:52;;;;;;;4.70;2.90;;;;;;;;;;5002098;28;20210;-68
2023/04/30 09:24:17;;;;;;;4.93;3.55;;;;;;;;;;5000528;28;20202;-68
2023/04/30 09:26:42;;;;;;;6.20;3.67;;;;;;;;;;4988913;28;20188;-68
2023/04/30 09:29:09;;;;;;;4.93;3.70;;;;;;;;;;5002174;28;20186;-68
2023/04/30 09:31:35;;;;;;;4.88;3.58;;;;;;;;;;5007567;22;20323;-76
2023/04/30 09:34:01;;;;;;;6.75;4.10;;;;;;;;;;4987304;28;20563;-76
2023/04/30 09:36:26;;;;;;;4.60;3.00;;;;;;;;;;4987175;28;20206;-76
2023/04/30 09:38:52;;;;;;;5.90;3.38;;;;;;;;;;4989025;28;20176;-77
2023/04/30 09:41:22;;;;;;;4.97;3.17;;;;;;;;;;4989943;28;20781;-77
2023/04/30 09:43:47;;;;;;;3.70;3.15;;;;;;;;;;4987443;28;20175;-77
2023/04/30 09:46:13;;;;;;;7.65;4.15;;;;;;;;;;4989581;28;20180;-76
2023/04/30 09:48:40;;;;;;;5.45;3.50;;;;;;;;;;4972525;28;20196;-77
2023/04/30 09:51:05;;;;;;;4.22;3.28;;;;;;;;;;4988503;28;20227;-77
2023/04/30 09:53:32;;;;;;;3.65;3.17;;;;;;;;;;4987672;28;20732;-76
2023/04/30 09:56:00;;;;;;;7.28;3.28;;;;;;;;;;4987676;28;20602;-77
2023/04/30 09:58:26;;;;;;;5.43;3.97;;;;;;;;;;4972268;28;20689;-77
2023/04/30 10:00:52;;;;;;;4.32;3.35;;;;;;;;;;4988360;28;20179;-77
2023/04/30 10:03:19;;;;;;;3.63;2.83;;;;;;;;;;4980223;28;20188;-77
2023/04/30 10:05:46;;;;;;;3.97;2.70;;;;;;;;;;4970758;28;20649;-77
2023/04/30 10:08:17;;;;;;;5.72;3.13;;;;;;;;;;4971311;28;20270;-76
2023/04/30 10:10:43;;;;;;;4.35;2.40;;;;;;;;;;4969171;28;20191;-76
2023/04/30 10:13:10;;;;;;;4.53;2.95;;;;;;;;;;4988168;28;20215;-77
2023/04/30 10:15:38;;;;;;;3.50;2.80;;;;;;;;;;4972158;28;20592;-77
2023/04/30 10:18:05;;;;;;;4.22;2.80;;;;;;;;;;4986519;28;20184;-76
2023/04/30 10:20:33;;;;;;;5.30;3.00;;;;;;;;;;4981058;28;20181;-77
2023/04/30 10:22:59;;;;;;;2.55;2.30;;;;;;;;;;4967140;28;20210;-76
2023/04/30 10:25:27;;;;;;;4.65;3.08;;;;;;;;;;4983626;28;20226;-77
2023/04/30 10:27:52;;;;;;;4.93;2.83;;;;;;;;;;4986953;28;20190;-76
2023/04/30 10:30:17;;;;;;;4.50;3.13;;;;;;;;;;4971123;28;20188;-76
2023/04/30 10:33:02;;;;;;;4.88;3.35;;;;;;;;;;4982050;28;20626;-76
2023/04/30 10:35:29;;;;;;;4.57;2.75;;;;;;;;;;4989749;28;20233;-77
2023/04/30 10:37:56;;;;;;;3.90;2.92;;;;;;;;;;4983182;28;20250;-76
2023/04/30 10:40:25;;;;;;;4.20;2.90;;;;;;;;;;4967844;28;20397;-76
2023/04/30 10:42:52;;;;;;;4.28;2.72;;;;;;;;;;4974511;28;20689;-77
2023/04/30 10:45:19;;;;;;;4.55;2.50;;;;;;;;;;4969325;28;20187;-77
2023/04/30 10:47:45;;;;;;;4.93;2.55;;;;;;;;;;4989257;28;20172;-76
2023/04/30 10:50:10;;;;;;;4.40;2.90;;;;;;;;;;4973860;28;20203;-78
2023/04/30 10:52:37;;;;;;;5.72;3.35;;;;;;;;;;4987819;28;20204;-77
2023/04/30 10:55:06;;;;;;;4.00;3.10;;;;;;;;;;4985592;28;20678;-77
2023/04/30 10:57:39;;;;;;;4.20;3.10;;;;;;;;;;4990474;28;20712;-77
2023/04/30 11:00:08;;;;;;;5.13;2.90;;;;;;;;;;4973102;28;20298;-77
2023/04/30 11:02:40;;;;;;;3.70;2.55;;;;;;;;;;4971901;28;20207;-77
2023/04/30 11:05:05;;;;;;;4.53;2.42;;;;;;;;;;4993503;28;20180;-77
2023/04/30 11:07:30;;;;;;;4.63;3.00;;;;;;;;;;4981550;28;20192;-76
2023/04/30 11:09:56;;;;;;;5.43;2.88;;;;;;;;;;4988635;28;20893;-77
2023/04/30 11:12:27;;;;;;;3.22;2.53;;;;;;;;;;4968484;28;20200;-77
2023/04/30 11:14:52;;;;;;;3.83;2.90;;;;;;;;;;4985715;28;20222;-77
2023/04/30 11:17:21;;;;;;;6.28;3.10;;;;;;;;;;4974052;28;20199;-77
2023/04/30 11:19:50;;;;;;;4.75;2.55;;;;;;;;;;4983739;28;20532;-77
2023/04/30 11:22:23;;;;;;;3.85;2.85;;;;;;;;;;4969241;28;20582;-76
2023/04/30 11:24:57;;;;;;;3.78;2.97;;;;;;;;;;4982009;28;20187;-76
2023/04/30 11:27:23;;;;;;;4.45;2.95;;;;;;;;;;4974794;28;20191;-77
2023/04/30 11:29:50;;;;;;;2.70;2.28;;;;;;;;;;4989188;28;20179;-76
2023/04/30 11:32:16;;;;;;;3.80;3.20;;;;;;;;;;4988090;28;20709;-78
2023/04/30 11:34:45;;;;;;;9.88;3.50;;;;;;;;;;4991061;28;20302;-77
2023/04/30 11:37:19;;;;;;;3.95;2.63;;;;;;;;;;4985900;28;20206;-79
2023/04/30 11:39:45;;;;;;;5.78;2.85;;;;;;;;;;4988199;28;20684;-76
2023/04/30 11:42:17;;;;;;;5.65;2.90;;;;;;;;;;5046966;28;21105;-77
2023/04/30 11:44:42;;;;;;;5.95;2.70;;;;;;;;;;5029155;28;20192;-78
2023/04/30 11:47:08;;;;;;;3.80;2.55;;;;;;;;;;5025761;28;20190;-78
2023/04/30 11:49:33;;;;;;;2.83;2.28;;;;;;;;;;5027669;28;20595;-78
2023/04/30 11:51:58;;;;;;;2.88;2.50;;;;;;;;;;5027764;28;20209;-78
2023/04/30 11:54:23;;;;;;;3.05;2.50;;;;;;;;;;5019864;22;20253;-68
2023/04/30 11:56:49;;;;;;;3.70;2.45;;;;;;;;;;4992822;28;20569;-67
2023/04/30 11:59:14;;;;;;;3.10;2.03;;;;;;;;;;4990480;28;20170;-68
2023/04/30 12:01:40;;;;;;;3.30;1.95;;;;;;;;;;4992827;28;20269;-67
2023/04/30 12:04:06;;;;;;;4.45;2.78;;;;;;;;;;4984162;28;20211;-69
2023/04/30 12:06:31;;;;;;;3.20;2.15;;;;;;;;;;4975980;28;20202;-68
2023/04/30 12:09:00;;;;;;;3.53;2.30;;;;;;;;;;4975502;28;20188;-67
2023/04/30 12:11:29;;;;;;;3.53;2.53;;;;;;;;;;4975178;28;20863;-68
2023/04/30 12:13:55;;;;;;;2.55;2.30;;;;;;;;;;4975132;28;20211;-67
2023/04/30 12:16:22;;;;;;;2.78;1.80;;;;;;;;;;4976187;28;20229;-68
2023/04/30 12:18:47;;;;;;;4.25;2.03;;;;;;;;;;4975760;28;20183;-67
2023/04/30 12:21:13;;;;;;;3.85;2.33;;;;;;;;;;4975628;28;20728;-67
2023/04/30 12:23:38;;;;;;;2.83;2.05;;;;;;;;;;4975634;28;20207;-68
2023/04/30 12:26:03;;;;;;;2.90;2.60;;;;;;;;;;4975657;28;20266;-67
2023/04/30 12:28:28;;;;;;;2.55;1.83;;;;;;;;;;4973643;28;20433;-68
2023/04/30 12:30:53;;;;;;;1.63;1.40;;;;;;;;;;4975611;28;20307;-68
2023/04/30 12:33:19;;;;;;;2.28;1.95;;;;;;;;;;4976646;28;20213;-67
2023/04/30 12:35:44;;;;;;;2.40;2.20;;;;;;;;;;4974783;28;20184;-67
2023/04/30 12:38:09;;;;;;;3.30;2.00;;;;;;;;;;4973164;28;21535;-68
2023/04/30 12:40:34;;;;;;;2.33;1.83;;;;;;;;;;4971770;28;20456;-67
2023/04/30 12:43:01;;;;;;;2.10;1.67;;;;;;;;;;4976003;28;20180;-67
2023/04/30 12:45:45;;;;;;;2.70;2.00;;;;;;;;;;4972653;28;20276;-68
2023/04/30 12:48:10;;;;;;;2.60;2.22;;;;;;;;;;4973019;28;20180;-68
2023/04/30 12:50:37;;;;;;;2.47;1.52;;;;;;;;;;4974051;28;20570;-68
2023/04/30 12:53:03;;;;;;;3.08;1.33;;;;;;;;;;4963575;28;20185;-68
2023/04/30 12:55:29;;;;;;;2.92;1.23;;;;;;;;;;4976114;28;20322;-68
2023/04/30 12:58:01;;;;;;;1.42;1.30;;;;;;;;;;4959742;28;20243;-69
2023/04/30 13:00:26;;;;;;;1.98;1.35;;;;;;;;;;4958701;28;20254;-67
2023/04/30 13:02:51;;;;;;;1.87;1.20;;;;;;;;;;4963015;28;20183;-68
2023/04/30 13:05:17;;;;;;;1.53;1.37;;;;;;;;;;4975732;28;20454;-68
2023/04/30 13:07:42;;;;;;;1.58;1.20;;;;;;;;;;4961643;28;20902;-68
2023/04/30 13:10:08;;;;;;;1.50;1.20;;;;;;;;;;4960668;28;20185;-67
2023/04/30 13:12:33;;;;;;;1.95;1.00;;;;;;;;;;4960336;28;20464;-68
2023/04/30 13:14:58;;;;;;;3.33;1.07;;;;;;;;;;4961798;28;20294;-69
2023/04/30 13:17:25;;;;;;;2.85;1.55;;;;;;;;;;4962653;28;20436;-68
2023/04/30 13:19:50;;;;;;;2.10;1.17;;;;;;;;;;4960181;28;20176;-68
2023/04/30 13:22:15;;;;;;;1.90;1.10;;;;;;;;;;4961937;28;20566;-67
2023/04/30 13:24:40;;;;;;;1.97;1.20;;;;;;;;;;4958377;28;20786;-67
2023/04/30 13:27:06;;;;;;;1.65;1.38;;;;;;;;;;4964418;28;21058;-68
2023/04/30 13:29:31;;;;;;;2.10;1.63;;;;;;;;;;4957705;28;21046;-67
2023/04/30 13:31:57;;;;;;;3.53;1.45;;;;;;;;;;4959241;28;20227;-68
2023/04/30 13:34:22;;;;;;;2.10;1.23;;;;;;;;;;4963006;28;20200;-67
2023/04/30 13:36:47;;;;;;;0.95;0.80;;;;;;;;;;4962422;28;20673;-68
2023/04/30 13:39:12;;;;;;;1.50;0.90;;;;;;;;;;4961159;28;20178;-67
2023/04/30 13:41:38;;;;;;;2.05;1.10;;;;;;;;;;4978134;28;20211;-67
2023/04/30 13:44:03;;;;;;;1.43;1.30;;;;;;;;;;4956516;28;20243;-67
2023/04/30 13:46:29;;;;;;;4.30;1.35;;;;;;;;;;4958679;28;22030;-68
2023/04/30 13:48:54;;;;;;;2.83;1.55;;;;;;;;;;4962047;28;20184;-67
2023/04/30 13:51:20;;;;;;;1.60;1.25;;;;;;;;;;4958623;28;20305;-68
2023/04/30 13:53:45;;;;;;;2.15;1.30;;;;;;;;;;4961094;28;20314;-68
2023/04/30 13:56:10;;;;;;;1.70;1.20;;;;;;;;;;4961322;28;20218;-67
2023/04/30 13:58:35;;;;;;;1.55;1.02;;;;;;;;;;4959696;28;20531;-67
2023/04/30 14:01:01;;;;;;;1.63;1.20;;;;;;;;;;4957187;28;20230;-68
2023/04/30 14:03:26;;;;;;;1.10;1.00;;;;;;;;;;4955882;28;20560;-68
2023/04/30 14:05:53;;;;;;;1.45;1.30;;;;;;;;;;4960415;28;20191;-68
2023/04/30 14:08:18;;;;;;;3.30;1.30;;;;;;;;;;4961289;28;20200;-68
2023/04/30 14:10:43;;;;;;;2.03;1.17;;;;;;;;;;4960827;28;20192;-68
2023/04/30 14:13:08;;;;;;;2.15;1.40;;;;;;;;;;4959665;28;20199;-73
2023/04/30 14:15:34;;;;;;;1.33;1.00;;;;;;;;;;4955861;28;20204;-68
2023/04/30 14:18:00;;;;;;;1.45;1.00;;;;;;;;;;4957841;28;20426;-68
2023/04/30 14:20:25;;;;;;;3.13;0.85;;;;;;;;;;4961089;28;20290;-68
2023/04/30 14:22:50;;;;;;;3.40;1.10;;;;;;;;;;4959922;28;20184;-69
2023/04/30 14:25:16;;;;;;;1.30;1.10;;;;;;;;;;4957759;28;20214;-68
2023/04/30 14:27:41;;;;;;;2.50;1.42;;;;;;;;;;4961168;28;20230;-69
2023/04/30 14:30:07;;;;;;;1.50;1.10;;;;;;;;;;4960180;28;20662;-68